Time;durP1;ratioP1;P1;durP2;ratioP2;P2;SDS_P1;SDS_P2;PMS_P1;PMS_P2;Temp;Humidity;BMP_temperature;BMP_pressure;BME280_temperature;BME280_humidity;BME280_pressure;Samples;Min_cycle;Max_cycle;Signal;HPM_P1;HPM_P2
2024/01/21 00:02:05;;;;;;;0.00;0.00;;;28.60;42.20;;;;;;5013043;28;20220;-47
2024/01/21 00:04:38;;;;;;;0.00;0.00;;;28.60;42.30;;;;;;5012801;28;20247;-46
2024/01/21 00:07:09;;;;;;;0.00;0.00;;;28.70;42.30;;;;;;5013590;28;20688;-43
2024/01/21 00:09:39;;;;;;;0.00;0.00;;;28.70;42.30;;;;;;5013534;28;20632;-47
2024/01/21 00:12:10;;;;;;;0.00;0.00;;;28.70;42.40;;;;;;5013193;28;20216;-41
2024/01/21 00:14:41;;;;;;;0.00;0.00;;;28.80;42.40;;;;;;5013494;28;20220;-46
2024/01/21 00:17:11;;;;;;;0.00;0.00;;;28.80;42.50;;;;;;5013112;28;20200;-42
2024/01/21 00:19:44;;;;;;;0.00;0.00;;;28.90;42.50;;;;;;5012825;28;20209;-47
2024/01/21 00:22:15;;;;;;;0.00;0.00;;;28.90;42.40;;;;;;5013024;28;20236;-44
2024/01/21 00:24:45;;;;;;;0.00;0.00;;;28.90;42.30;;;;;;5012955;28;20649;-49
2024/01/21 00:27:16;;;;;;;0.00;0.00;;;29.00;42.30;;;;;;5012257;28;20205;-44
2024/01/21 00:29:47;;;;;;;0.00;0.00;;;29.00;42.30;;;;;;5012702;28;20196;-46
2024/01/21 00:32:17;;;;;;;0.00;0.00;;;29.10;42.30;;;;;;5012205;28;20228;-45
2024/01/21 00:34:50;;;;;;;0.00;0.00;;;29.10;42.30;;;;;;5012646;28;20392;-45
2024/01/21 00:37:20;;;;;;;0.00;0.00;;;29.10;42.30;;;;;;5012308;28;20653;-46
2024/01/21 00:39:51;;;;;;;0.00;0.00;;;29.20;42.30;;;;;;5012722;28;20554;-46
2024/01/21 00:42:22;;;;;;;0.00;0.00;;;29.20;42.20;;;;;;5012836;28;20568;-45
2024/01/21 00:44:52;;;;;;;0.00;0.00;;;29.20;42.20;;;;;;5012745;28;20197;-44
2024/01/21 00:47:23;;;;;;;0.00;0.00;;;29.20;42.10;;;;;;5012639;28;20208;-42
2024/01/21 00:49:56;;;;;;;0.00;0.00;;;29.30;42.20;;;;;;5012230;28;20204;-46
2024/01/21 00:52:27;;;;;;;0.00;0.00;;;29.30;42.20;;;;;;5012074;28;20708;-45
2024/01/21 00:54:57;;;;;;;0.00;0.00;;;29.30;42.10;;;;;;5012048;28;20227;-45
2024/01/21 00:57:28;;;;;;;0.00;0.00;;;29.30;42.20;;;;;;5011875;28;20197;-42
2024/01/21 00:59:58;;;;;;;0.00;0.00;;;29.40;42.20;;;;;;5012473;28;20196;-48
2024/01/21 01:02:29;;;;;;;0.00;0.00;;;29.40;42.20;;;;;;5012594;28;20235;-46
2024/01/21 01:05:02;;;;;;;0.00;0.00;;;29.40;42.20;;;;;;5012355;28;20193;-44
2024/01/21 01:07:32;;;;;;;0.00;0.00;;;29.40;42.30;;;;;;5012223;28;20212;-45
2024/01/21 01:10:03;;;;;;;0.00;0.00;;;29.50;42.30;;;;;;5012304;28;20448;-46
2024/01/21 01:12:34;;;;;;;0.00;0.00;;;29.50;42.40;;;;;;5012269;28;20217;-44
2024/01/21 01:15:04;;;;;;;0.00;0.00;;;29.50;42.50;;;;;;5011854;28;20672;-48
2024/01/21 01:17:35;;;;;;;0.00;0.00;;;29.50;42.50;;;;;;5012268;28;20197;-43
2024/01/21 01:20:09;;;;;;;0.00;0.00;;;29.50;42.50;;;;;;5012204;28;20254;-46
2024/01/21 01:22:40;;;;;;;0.00;0.00;;;29.50;42.60;;;;;;5010922;28;20228;-43
2024/01/21 01:25:11;;;;;;;0.00;0.00;;;29.60;42.70;;;;;;5012089;28;20201;-45
2024/01/21 01:27:42;;;;;;;0.00;0.00;;;29.60;42.80;;;;;;5011191;28;20185;-43
2024/01/21 01:30:13;;;;;;;0.00;0.00;;;29.60;42.80;;;;;;5012539;28;20568;-48
2024/01/21 01:32:44;;;;;;;0.00;0.00;;;29.60;42.80;;;;;;5011917;28;20219;-43
2024/01/21 01:35:16;;;;;;;0.00;0.00;;;29.60;42.90;;;;;;5011380;28;20197;-46
2024/01/21 01:37:47;;;;;;;0.00;0.00;;;29.70;42.90;;;;;;5011900;28;20626;-45
2024/01/21 01:40:20;;;;;;;0.00;0.00;;;29.70;43.00;;;;;;5011716;28;20204;-46
2024/01/21 01:42:57;;;;;;;0.00;0.00;;;29.70;43.00;;;;;;5011309;28;20220;-46
2024/01/21 01:45:32;;;;;;;0.00;0.00;;;29.70;43.00;;;;;;5011926;28;20283;-42
2024/01/21 01:48:02;;;;;;;0.00;0.00;;;29.70;43.00;;;;;;5011751;28;20196;-45
2024/01/21 01:50:37;;;;;;;0.00;0.00;;;29.70;42.90;;;;;;5011015;28;20197;-48
2024/01/21 01:53:07;;;;;;;0.00;0.00;;;29.70;43.00;;;;;;5011580;28;20224;-44
2024/01/21 01:55:38;;;;;;;0.00;0.00;;;29.70;43.00;;;;;;5011968;28;20367;-46
2024/01/21 01:58:09;;;;;;;0.00;0.00;;;29.70;42.90;;;;;;5011866;28;20196;-47
2024/01/21 02:00:40;;;;;;;0.00;0.00;;;29.80;43.00;;;;;;5011921;28;20201;-46
2024/01/21 02:03:12;;;;;;;0.00;0.00;;;29.80;42.90;;;;;;5011117;28;20251;-41
2024/01/21 02:05:44;;;;;;;0.00;0.00;;;29.80;42.90;;;;;;5011841;28;20192;-41
2024/01/21 02:08:15;;;;;;;0.00;0.00;;;29.80;42.80;;;;;;5011793;28;20201;-42
2024/01/21 02:10:46;;;;;;;0.00;0.00;;;29.80;42.80;;;;;;5006233;28;20575;-41
2024/01/21 02:13:17;;;;;;;0.00;0.00;;;29.80;42.80;;;;;;5007192;28;20228;-43
2024/01/21 02:15:47;;;;;;;0.00;0.00;;;29.80;42.80;;;;;;5007191;28;20308;-43
2024/01/21 02:18:18;;;;;;;0.00;0.00;;;29.80;42.80;;;;;;5008775;28;20448;-45
2024/01/21 02:20:51;;;;;;;0.00;0.00;;;29.80;42.70;;;;;;5007698;28;20203;-41
2024/01/21 02:23:23;;;;;;;0.00;0.00;;;29.80;42.70;;;;;;5007462;28;20689;-40
2024/01/21 02:25:54;;;;;;;0.00;0.00;;;29.80;42.70;;;;;;5007481;28;20200;-48
2024/01/21 02:28:25;;;;;;;0.00;0.00;;;29.80;42.70;;;;;;5008481;28;20200;-48
2024/01/21 02:30:55;;;;;;;0.00;0.00;;;29.80;42.70;;;;;;5007363;28;20211;-43
2024/01/21 02:33:26;;;;;;;0.00;0.00;;;29.80;42.70;;;;;;5007617;28;20228;-45
2024/01/21 02:35:57;;;;;;;0.00;0.00;;;29.80;42.60;;;;;;5007624;28;20213;-44
2024/01/21 02:38:30;;;;;;;0.00;0.00;;;29.80;42.50;;;;;;5007259;28;20197;-43
2024/01/21 02:41:00;;;;;;;0.00;0.00;;;29.80;42.50;;;;;;5006925;28;20205;-44
2024/01/21 02:43:31;;;;;;;0.00;0.00;;;29.80;42.50;;;;;;5007718;28;20232;-44
2024/01/21 02:46:01;;;;;;;0.00;0.00;;;29.80;42.50;;;;;;5007996;28;20608;-42
2024/01/21 02:48:32;;;;;;;0.00;0.00;;;29.80;42.50;;;;;;5006503;28;20212;-42
2024/01/21 02:51:03;;;;;;;0.00;0.00;;;29.80;42.50;;;;;;5007649;28;20209;-41
2024/01/21 02:53:35;;;;;;;0.00;0.00;;;29.80;42.50;;;;;;5007351;28;20271;-41
2024/01/21 02:56:06;;;;;;;0.00;0.00;;;29.80;42.50;;;;;;5007488;28;20752;-41
2024/01/21 02:58:37;;;;;;;0.00;0.00;;;29.90;43.20;;;;;;5007416;28;20201;-42
2024/01/21 03:01:09;;;;;;;0.00;0.00;;;29.90;42.60;;;;;;5009191;28;20204;-42
2024/01/21 03:03:39;;;;;;;0.00;0.00;;;29.90;42.60;;;;;;5011109;28;20307;-41
2024/01/21 03:06:10;;;;;;;0.00;0.00;;;29.90;42.70;;;;;;5010574;28;20196;-42
2024/01/21 03:08:43;;;;;;;0.00;0.00;;;29.90;42.60;;;;;;5010902;28;20487;-44
2024/01/21 03:11:13;;;;;;;0.00;0.00;;;29.90;42.60;;;;;;5010399;28;20207;-41
2024/01/21 03:13:44;;;;;;;0.00;0.00;;;29.90;42.70;;;;;;5010233;28;20724;-44
2024/01/21 03:16:15;;;;;;;0.00;0.00;;;30.00;42.80;;;;;;5011341;28;20201;-45
2024/01/21 03:18:46;;;;;;;0.00;0.00;;;30.00;42.80;;;;;;5009879;28;20200;-46
2024/01/21 03:21:16;;;;;;;0.00;0.00;;;30.00;42.80;;;;;;5007725;28;20696;-45
2024/01/21 03:23:52;;;;;;;0.00;0.00;;;30.00;42.70;;;;;;5010556;28;20228;-47
2024/01/21 03:26:22;;;;;;;0.00;0.00;;;30.10;42.80;;;;;;5010952;28;20703;-44
2024/01/21 03:28:53;;;;;;;0.00;0.00;;;30.10;42.80;;;;;;5010420;28;20572;-45
2024/01/21 03:31:24;;;;;;;0.00;0.00;;;30.10;42.80;;;;;;5010346;28;20716;-41
2024/01/21 03:33:54;;;;;;;0.00;0.00;;;30.10;42.80;;;;;;5009489;28;20904;-42
2024/01/21 03:36:25;;;;;;;0.00;0.00;;;30.10;42.80;;;;;;5010987;28;20657;-42
2024/01/21 03:38:57;;;;;;;0.00;0.00;;;30.10;42.90;;;;;;5010610;28;20676;-46
2024/01/21 03:41:28;;;;;;;0.00;0.00;;;30.10;42.90;;;;;;5010405;28;20205;-46
2024/01/21 03:43:59;;;;;;;0.00;0.00;;;30.10;42.90;;;;;;5009712;28;20207;-43
2024/01/21 03:46:29;;;;;;;0.00;0.00;;;30.10;42.80;;;;;;4990647;28;20232;-44
2024/01/21 03:49:00;;;;;;;0.00;0.00;;;30.10;42.90;;;;;;5002638;28;20201;-49
2024/01/21 03:51:31;;;;;;;0.00;0.00;;;30.10;43.00;;;;;;5009963;28;20679;-45
2024/01/21 03:54:03;;;;;;;0.00;0.00;;;30.10;43.00;;;;;;5009980;28;20586;-43
2024/01/21 03:56:34;;;;;;;0.00;0.00;;;30.10;43.00;;;;;;5009318;28;20212;-41
2024/01/21 03:59:04;;;;;;;0.00;0.00;;;30.10;43.00;;;;;;5009961;28;20208;-49
2024/01/21 04:01:35;;;;;;;0.00;0.00;;;30.20;43.10;;;;;;5009024;28;20207;-43
2024/01/21 04:04:06;;;;;;;0.00;0.00;;;30.20;43.10;;;;;;5009576;28;20196;-45
2024/01/21 04:06:42;;;;;;;0.00;0.00;;;30.20;43.10;;;;;;5010504;28;20208;-45
2024/01/21 04:09:15;;;;;;;0.00;0.00;;;30.20;43.10;;;;;;5009638;28;20211;-44
2024/01/21 04:11:46;;;;;;;0.00;0.00;;;30.20;43.10;;;;;;5009192;28;20201;-43
2024/01/21 04:14:16;;;;;;;0.00;0.00;;;30.20;43.20;;;;;;5011857;28;20205;-44
2024/01/21 04:16:47;;;;;;;0.00;0.00;;;30.20;43.20;;;;;;5013519;28;20197;-48
2024/01/21 04:19:21;;;;;;;0.00;0.00;;;30.20;43.20;;;;;;5012866;28;20262;-41
2024/01/21 04:21:51;;;;;;;0.00;0.00;;;30.30;43.20;;;;;;5012005;28;20560;-42
2024/01/21 04:24:24;;;;;;;0.00;0.00;;;30.30;43.20;;;;;;4993125;28;20566;-47
2024/01/21 04:26:54;;;;;;;0.00;0.00;;;30.20;43.10;;;;;;4993757;28;20208;-45
2024/01/21 04:29:25;;;;;;;0.00;0.00;;;30.20;43.20;;;;;;4993850;28;20209;-46
2024/01/21 04:31:56;;;;;;;0.00;0.00;;;30.20;43.20;;;;;;4993269;28;20625;-45
2024/01/21 04:34:27;;;;;;;0.00;0.00;;;30.20;43.20;;;;;;4993008;28;20248;-43
2024/01/21 04:36:58;;;;;;;0.00;0.00;;;30.20;43.30;;;;;;4993021;28;20198;-42
2024/01/21 04:39:30;;;;;;;0.00;0.00;;;30.20;43.30;;;;;;4993043;28;20208;-43
2024/01/21 04:42:01;;;;;;;0.00;0.00;;;30.10;43.30;;;;;;4992562;28;20590;-48
2024/01/21 04:44:32;;;;;;;0.00;0.00;;;30.10;43.30;;;;;;4992956;28;20370;-48
2024/01/21 04:47:02;;;;;;;0.00;0.00;;;30.10;43.30;;;;;;4993154;28;20202;-42
2024/01/21 04:49:33;;;;;;;0.00;0.00;;;30.10;43.40;;;;;;5009581;28;20216;-43
2024/01/21 04:52:04;;;;;;;0.00;0.00;;;30.10;43.40;;;;;;5013010;28;20228;-42
2024/01/21 04:54:36;;;;;;;0.00;0.00;;;30.10;43.40;;;;;;5012577;28;20196;-44
2024/01/21 04:57:07;;;;;;;0.00;0.00;;;30.10;43.50;;;;;;5012628;28;20193;-45
2024/01/21 04:59:38;;;;;;;0.00;0.00;;;30.00;43.50;;;;;;5012715;28;20211;-46
2024/01/21 05:02:09;;;;;;;0.00;0.00;;;30.00;43.60;;;;;;5012269;28;20228;-44
2024/01/21 05:04:39;;;;;;;0.00;0.00;;;30.00;43.60;;;;;;5012237;28;20197;-45
2024/01/21 05:07:10;;;;;;;0.00;0.00;;;30.00;43.60;;;;;;5011830;28;20548;-45
2024/01/21 05:09:43;;;;;;;0.00;0.00;;;29.90;43.60;;;;;;5011916;28;20204;-43
2024/01/21 05:12:13;;;;;;;0.00;0.00;;;29.90;43.60;;;;;;5011874;28;20204;-43
2024/01/21 05:14:44;;;;;;;0.00;0.00;;;29.90;43.60;;;;;;5011525;28;20212;-42
2024/01/21 05:17:15;;;;;;;0.00;0.00;;;29.90;43.60;;;;;;5010936;28;20197;-45
2024/01/21 05:19:45;;;;;;;0.00;0.00;;;29.90;43.70;;;;;;5010740;28;20562;-43
2024/01/21 05:22:16;;;;;;;0.00;0.00;;;29.90;43.70;;;;;;4991087;28;20630;-42
2024/01/21 05:24:50;;;;;;;0.00;0.00;;;29.90;43.80;;;;;;4991107;28;20197;-42
2024/01/21 05:27:21;;;;;;;0.00;0.00;;;29.80;43.80;;;;;;4991464;28;20678;-43
2024/01/21 05:29:52;;;;;;;0.00;0.00;;;29.80;43.80;;;;;;4992100;28;20271;-45
2024/01/21 05:32:23;;;;;;;0.00;0.00;;;29.80;43.80;;;;;;4991268;28;20244;-43
2024/01/21 05:34:53;;;;;;;0.00;0.00;;;29.80;43.80;;;;;;4990562;28;20661;-44
2024/01/21 05:37:24;;;;;;;0.00;0.00;;;29.80;43.80;;;;;;4991214;28;20206;-43
2024/01/21 05:39:57;;;;;;;0.00;0.00;;;29.70;43.80;;;;;;4991152;28;20201;-43
2024/01/21 05:42:27;;;;;;;0.00;0.00;;;29.70;43.90;;;;;;5009758;28;20569;-42
2024/01/21 05:44:58;;;;;;;0.00;0.00;;;29.70;43.90;;;;;;5010841;28;20673;-43
2024/01/21 05:47:29;;;;;;;0.00;0.00;;;29.70;44.00;;;;;;5010541;28;20649;-42
2024/01/21 05:49:59;;;;;;;0.00;0.00;;;29.70;44.00;;;;;;4991003;28;20209;-42
2024/01/21 05:52:30;;;;;;;0.00;0.00;;;29.70;44.00;;;;;;4990572;28;20221;-43
2024/01/21 05:55:02;;;;;;;0.00;0.00;;;29.60;44.00;;;;;;4990812;28;20193;-42
2024/01/21 05:57:33;;;;;;;0.00;0.00;;;29.60;44.10;;;;;;4991291;28;20197;-45
2024/01/21 06:00:04;;;;;;;0.00;0.00;;;29.60;44.10;;;;;;4991222;28;20198;-42
2024/01/21 06:02:35;;;;;;;0.00;0.00;;;29.60;44.10;;;;;;4990108;28;20723;-43
2024/01/21 06:05:06;;;;;;;0.00;0.00;;;29.60;44.10;;;;;;4990761;28;20542;-43
2024/01/21 06:07:37;;;;;;;0.00;0.00;;;29.60;44.10;;;;;;4991126;28;20204;-42
2024/01/21 06:10:10;;;;;;;0.00;0.00;;;29.60;44.10;;;;;;4991048;28;20587;-42
2024/01/21 06:12:41;;;;;;;0.00;0.00;;;29.60;44.10;;;;;;4990858;28;20225;-42
2024/01/21 06:15:12;;;;;;;0.00;0.00;;;29.50;44.10;;;;;;4906770;28;2454268;-41
2024/01/21 06:17:43;;;;;;;0.00;0.00;;;29.50;44.10;;;;;;4992657;28;20443;-42
2024/01/21 06:20:14;;;;;;;0.00;0.00;;;29.50;44.10;;;;;;5011443;28;20665;-43
2024/01/21 06:22:45;;;;;;;0.00;0.00;;;29.50;44.10;;;;;;5010964;28;20235;-45
2024/01/21 06:25:18;;;;;;;0.00;0.00;;;29.50;44.10;;;;;;5011156;28;20197;-43
2024/01/21 06:27:49;;;;;;;0.00;0.00;;;29.50;44.20;;;;;;5011306;28;20837;-44
2024/01/21 06:30:22;;;;;;;0.00;0.00;;;29.50;44.20;;;;;;5010904;28;20201;-42
2024/01/21 06:32:53;;;;;;;0.00;0.00;;;29.40;44.20;;;;;;5010960;28;20308;-43
2024/01/21 06:35:23;;;;;;;0.00;0.00;;;29.40;44.30;;;;;;5011960;28;20200;-47
2024/01/21 06:37:54;;;;;;;0.00;0.00;;;29.40;44.30;;;;;;5015285;28;20201;-42
2024/01/21 06:40:27;;;;;;;0.00;0.00;;;29.40;44.30;;;;;;5015096;28;20653;-43
2024/01/21 06:42:57;;;;;;;0.00;0.00;;;29.40;44.40;;;;;;5014673;28;20224;-42
2024/01/21 06:45:28;;;;;;;0.00;0.00;;;29.40;44.40;;;;;;5014971;28;20193;-44
2024/01/21 06:47:59;;;;;;;0.00;0.00;;;29.40;44.50;;;;;;5014300;28;20212;-45
2024/01/21 06:50:29;;;;;;;0.00;0.00;;;29.40;44.40;;;;;;5014828;28;20208;-43
2024/01/21 06:53:00;;;;;;;0.00;0.00;;;29.40;44.50;;;;;;5014885;28;20708;-43
2024/01/21 06:55:32;;;;;;;0.00;0.00;;;29.40;44.50;;;;;;5014469;28;20669;-42
2024/01/21 06:58:03;;;;;;;0.00;0.00;;;29.30;44.50;;;;;;5014235;28;20192;-42
2024/01/21 07:00:34;;;;;;;0.00;0.00;;;29.40;44.60;;;;;;5014209;28;20201;-47
2024/01/21 07:03:04;;;;;;;0.00;0.00;;;29.40;44.60;;;;;;5013830;28;20225;-43
2024/01/21 07:05:35;;;;;;;0.00;0.00;;;29.40;44.70;;;;;;5014435;28;20199;-42
2024/01/21 07:08:06;;;;;;;0.00;0.00;;;29.40;44.80;;;;;;5014401;28;20204;-43
2024/01/21 07:10:39;;;;;;;0.00;0.00;;;29.30;44.70;;;;;;5014587;28;20196;-44
2024/01/21 07:13:10;;;;;;;0.00;0.00;;;29.30;44.70;;;;;;5013802;28;20223;-44
2024/01/21 07:15:41;;;;;;;0.00;0.00;;;29.30;44.80;;;;;;5013691;28;20197;-45
2024/01/21 07:18:11;;;;;;;0.00;0.00;;;29.30;44.80;;;;;;5013383;28;20283;-46
2024/01/21 07:20:42;;;;;;;0.00;0.00;;;29.30;44.80;;;;;;5013082;28;20200;-47
2024/01/21 07:23:13;;;;;;;0.00;0.00;;;29.30;44.80;;;;;;5013221;28;20232;-45
2024/01/21 07:25:45;;;;;;;0.00;0.00;;;29.30;44.90;;;;;;5014401;28;20665;-46
2024/01/21 07:28:16;;;;;;;0.00;0.00;;;29.30;44.90;;;;;;5013972;28;20200;-47
2024/01/21 07:30:47;;;;;;;0.00;0.00;;;29.20;44.80;;;;;;5040548;23;20655;-53
2024/01/21 07:33:19;;;;;;;0.00;0.00;;;29.20;44.90;;;;;;5032770;28;20220;-50
2024/01/21 07:35:50;;;;;;;0.00;0.00;;;29.20;44.90;;;;;;5033231;28;20199;-49
2024/01/21 07:38:21;;;;;;;0.00;0.00;;;29.20;44.90;;;;;;5033314;28;20231;-51
2024/01/21 07:40:54;;;;;;;0.00;0.00;;;29.20;44.90;;;;;;5033869;28;20648;-50
2024/01/21 07:43:24;;;;;;;0.00;0.00;;;29.20;45.00;;;;;;5033727;28;20235;-49
2024/01/21 07:45:55;;;;;;;0.00;0.00;;;29.20;45.00;;;;;;5033549;28;20192;-51
2024/01/21 07:48:26;;;;;;;0.00;0.00;;;29.20;45.00;;;;;;5032936;28;20586;-47
2024/01/21 07:50:56;;;;;;;0.00;0.00;;;29.20;45.00;;;;;;5033412;28;20200;-50
2024/01/21 07:53:27;;;;;;;0.00;0.00;;;29.10;45.00;;;;;;5033013;28;20220;-48
2024/01/21 07:56:00;;;;;;;0.00;0.00;;;29.10;45.00;;;;;;5032721;28;20427;-53
2024/01/21 07:58:30;;;;;;;0.00;0.00;;;29.10;45.10;;;;;;5032851;28;20606;-49
2024/01/21 08:01:01;;;;;;;0.00;0.00;;;29.10;45.10;;;;;;5032811;28;20200;-52
2024/01/21 08:03:32;;;;;;;0.00;0.00;;;29.10;45.10;;;;;;5028710;28;20706;-53
2024/01/21 08:06:04;;;;;;;0.00;0.00;;;29.10;45.10;;;;;;5029659;28;20192;-53
2024/01/21 08:08:34;;;;;;;0.00;0.00;;;29.00;45.10;;;;;;5029669;28;20211;-48
2024/01/21 08:11:07;;;;;;;0.00;0.00;;;29.00;45.10;;;;;;5029751;28;20191;-50
2024/01/21 08:13:38;;;;;;;0.00;0.00;;;29.00;45.10;;;;;;5029862;28;20224;-52
2024/01/21 08:16:09;;;;;;;0.00;0.00;;;29.00;45.10;;;;;;5028589;28;20597;-50
2024/01/21 08:18:40;;;;;;;0.00;0.00;;;28.90;45.70;;;;;;5029453;28;20578;-51
2024/01/21 08:21:10;;;;;;;0.00;0.00;;;28.90;45.10;;;;;;5028264;28;20196;-50
2024/01/21 08:23:42;;;;;;;0.00;0.00;;;28.90;45.30;;;;;;5010171;28;20696;-52
2024/01/21 08:26:14;;;;;;;0.00;0.00;;;28.90;45.20;;;;;;5007503;28;20244;-51
2024/01/21 08:31:19;;;;;;;0.00;0.00;;;28.90;45.30;;;;;;5027349;28;20207;-42
2024/01/21 08:33:50;;;;;;;0.00;0.00;;;28.80;45.20;;;;;;5028908;28;20600;-45
2024/01/21 08:36:20;;;;;;;0.00;0.00;;;28.80;45.30;;;;;;5029330;28;20203;-42
2024/01/21 08:38:51;;;;;;;0.00;0.00;;;28.80;45.30;;;;;;5029026;28;20196;-42
2024/01/21 08:41:24;;;;;;;0.00;0.00;;;28.80;45.30;;;;;;5028726;28;20200;-50
2024/01/21 08:43:54;;;;;;;0.00;0.00;;;28.80;45.20;;;;;;5016420;28;20230;-43
2024/01/21 08:46:25;;;;;;;0.00;0.00;;;28.80;45.20;;;;;;5028736;28;20204;-50
2024/01/21 08:48:56;;;;;;;0.00;0.00;;;28.80;45.10;;;;;;5028697;28;20208;-42
2024/01/21 08:51:26;;;;;;;0.00;0.00;;;28.80;45.10;;;;;;5028042;28;20199;-42
2024/01/21 08:53:57;;;;;;;0.00;0.00;;;28.80;45.00;;;;;;5027865;28;20216;-46
2024/01/21 08:56:30;;;;;;;0.00;0.00;;;28.70;44.90;;;;;;5027443;28;20718;-44
2024/01/21 08:59:00;;;;;;;0.00;0.00;;;28.70;44.80;;;;;;5027804;28;20637;-42
2024/01/21 09:01:31;;;;;;;0.00;0.00;;;28.70;44.70;;;;;;5027932;28;20214;-41
2024/01/21 09:04:02;;;;;;;0.00;0.00;;;28.70;44.70;;;;;;5028424;28;20228;-43
2024/01/21 09:06:32;;;;;;;0.00;0.00;;;28.70;44.60;;;;;;5027909;28;20295;-44
2024/01/21 09:09:03;;;;;;;0.00;0.00;;;28.70;44.60;;;;;;5028073;28;20207;-45
2024/01/21 09:11:38;;;;;;;0.00;0.00;;;28.70;44.60;;;;;;5027477;28;20716;-42
2024/01/21 09:14:09;;;;;;;0.00;0.00;;;28.60;44.40;;;;;;5028769;28;20203;-44
2024/01/21 09:16:41;;;;;;;0.00;0.00;;;28.60;44.40;;;;;;5027555;28;20656;-42
2024/01/21 09:19:12;;;;;;;0.00;0.00;;;28.60;44.30;;;;;;5027646;28;20204;-42
2024/01/21 09:21:42;;;;;;;0.00;0.00;;;28.60;44.30;;;;;;5027412;28;20206;-43
2024/01/21 09:24:14;;;;;;;0.00;0.00;;;28.50;44.20;;;;;;5028199;28;20682;-49
2024/01/21 09:26:47;;;;;;;0.00;0.00;;;28.50;44.20;;;;;;5027555;28;20209;-45
2024/01/21 09:29:17;;;;;;;0.00;0.00;;;28.50;44.20;;;;;;5028228;28;20216;-45
2024/01/21 09:31:56;;;;;;;0.00;0.00;;;28.50;44.30;;;;;;5027699;28;20211;-46
2024/01/21 09:34:27;;;;;;;0.00;0.00;;;28.50;44.20;;;;;;5025886;28;20204;-46
2024/01/21 09:36:57;;;;;;;0.00;0.00;;;28.40;44.10;;;;;;5026693;28;20196;-43
2024/01/21 09:39:28;;;;;;;0.00;0.00;;;28.50;44.20;;;;;;5026342;28;20200;-42
2024/01/21 09:42:01;;;;;;;0.00;0.00;;;28.40;44.10;;;;;;5028055;28;20224;-43
2024/01/21 09:44:32;;;;;;;0.00;0.00;;;28.40;44.10;;;;;;5027418;28;20228;-42
2024/01/21 09:47:03;;;;;;;0.00;0.00;;;28.40;44.20;;;;;;5027087;28;20283;-41
2024/01/21 09:49:34;;;;;;;0.00;0.00;;;28.40;44.10;;;;;;5027822;28;20212;-43
2024/01/21 09:52:06;;;;;;;0.00;0.00;;;28.40;44.10;;;;;;5027740;28;20315;-43
2024/01/21 09:54:37;;;;;;;0.00;0.00;;;28.30;44.00;;;;;;5027662;28;20486;-46
2024/01/21 09:57:12;;;;;;;0.00;0.00;;;28.30;44.00;;;;;;5027248;28;20220;-43
2024/01/21 09:59:44;;;;;;;0.00;0.00;;;28.30;44.00;;;;;;5026834;28;20663;-45
2024/01/21 10:02:18;;;;;;;0.00;0.00;;;28.30;44.00;;;;;;5027264;28;20216;-50
2024/01/21 10:04:48;;;;;;;0.00;0.00;;;28.20;44.00;;;;;;5027163;28;20314;-43
2024/01/21 10:07:19;;;;;;;0.00;0.00;;;28.20;44.00;;;;;;5027732;28;20215;-41
2024/01/21 10:09:57;;;;;;;0.00;0.00;;;28.20;44.00;;;;;;5027815;28;20548;-42
2024/01/21 10:12:30;;;;;;;0.00;0.00;;;28.10;44.00;;;;;;5031140;28;20231;-42
2024/01/21 10:15:00;;;;;;;0.00;0.00;;;28.10;43.90;;;;;;5031754;28;20207;-41
2024/01/21 10:17:31;;;;;;;0.00;0.00;;;28.10;44.00;;;;;;5031965;28;20250;-43
2024/01/21 10:20:02;;;;;;;0.00;0.00;;;28.10;44.00;;;;;;5031374;28;20204;-41
2024/01/21 10:22:33;;;;;;;0.00;0.00;;;28.10;44.00;;;;;;5031905;28;20220;-41
2024/01/21 10:25:03;;;;;;;0.00;0.00;;;28.00;44.00;;;;;;5033052;28;20231;-44
2024/01/21 10:27:36;;;;;;;0.00;0.00;;;28.00;44.00;;;;;;5035243;28;20652;-42
2024/01/21 10:30:09;;;;;;;0.00;0.00;;;28.00;44.00;;;;;;5035457;28;20702;-44
2024/01/21 10:32:40;;;;;;;0.00;0.00;;;28.00;44.10;;;;;;5034441;28;20216;-42
2024/01/21 10:35:10;;;;;;;0.00;0.00;;;27.90;44.10;;;;;;5034642;28;20299;-42
2024/01/21 10:37:41;;;;;;;0.00;0.00;;;27.90;44.00;;;;;;5034491;28;20196;-42
2024/01/21 10:40:15;;;;;;;0.00;0.00;;;27.90;44.00;;;;;;5034546;28;20204;-42
2024/01/21 10:42:53;;;;;;;0.00;0.00;;;27.90;44.10;;;;;;5034802;28;20714;-42
2024/01/21 10:45:25;;;;;;;0.00;0.00;;;27.90;44.00;;;;;;5034811;28;20226;-42
2024/01/21 10:47:58;;;;;;;0.00;0.00;;;27.90;44.10;;;;;;5033676;28;20211;-43
2024/01/21 10:50:29;;;;;;;0.00;0.00;;;27.80;44.00;;;;;;5034387;28;20689;-41
2024/01/21 10:53:01;;;;;;;0.00;0.00;;;27.80;44.00;;;;;;5034429;28;20212;-42
2024/01/21 10:55:32;;;;;;;0.00;0.00;;;27.80;44.00;;;;;;5034534;28;20228;-42
2024/01/21 10:58:05;;;;;;;0.00;0.00;;;27.80;44.00;;;;;;5034787;28;20196;-41
2024/01/21 11:00:36;;;;;;;0.00;0.00;;;27.80;44.00;;;;;;5034612;28;20200;-41
2024/01/21 11:03:27;;;;;;;0.00;0.00;;;27.80;44.00;;;;;;5034616;28;20224;-41
2024/01/21 11:06:01;;;;;;;0.00;0.00;;;27.70;44.00;;;;;;5034178;28;20241;-41
2024/01/21 11:08:32;;;;;;;0.00;0.00;;;27.70;44.00;;;;;;5034633;28;20288;-41
2024/01/21 11:11:15;;;;;;;0.00;0.00;;;27.70;44.00;;;;;;5034194;28;20215;-41
2024/01/21 11:13:49;;;;;;;0.00;0.00;;;27.60;44.00;;;;;;5033053;28;20220;-42
2024/01/21 11:16:37;;;;;;;0.00;0.00;;;27.60;44.00;;;;;;5034424;28;20188;-41
2024/01/21 11:19:11;;;;;;;0.00;0.00;;;27.60;44.10;;;;;;5034490;28;20619;-42
2024/01/21 11:21:43;;;;;;;0.00;0.00;;;27.60;44.00;;;;;;5041253;28;20192;-41
2024/01/21 11:24:15;;;;;;;0.00;0.00;;;27.60;44.10;;;;;;5049348;28;20223;-44
2024/01/21 11:26:49;;;;;;;0.00;0.00;;;27.60;44.10;;;;;;5053772;28;20552;-44
2024/01/21 11:29:29;;;;;;;0.00;0.00;;;27.50;44.10;;;;;;5050862;28;20257;-41
2024/01/21 11:32:01;;;;;;;0.00;0.00;;;27.50;44.10;;;;;;5049112;28;20217;-42
2024/01/21 11:34:36;;;;;;;0.00;0.00;;;27.50;44.10;;;;;;5048449;28;20562;-41
2024/01/21 11:37:07;;;;;;;0.00;0.00;;;27.50;44.10;;;;;;5047690;28;20195;-42
2024/01/21 11:39:38;;;;;;;0.00;0.00;;;27.50;44.10;;;;;;5053404;28;20234;-41
2024/01/21 11:42:10;;;;;;;0.00;0.00;;;27.50;44.10;;;;;;5053098;28;20299;-41
2024/01/21 11:44:43;;;;;;;0.00;0.00;;;27.50;44.10;;;;;;5053174;28;20298;-41
2024/01/21 11:47:14;;;;;;;0.00;0.00;;;27.40;44.10;;;;;;5048746;28;20647;-49
2024/01/21 11:49:44;;;;;;;0.00;0.00;;;27.40;44.10;;;;;;5050962;28;20192;-42
2024/01/21 11:52:15;;;;;;;0.00;0.00;;;27.40;44.10;;;;;;5048765;28;20684;-45
2024/01/21 11:54:46;;;;;;;0.00;0.00;;;27.40;44.10;;;;;;5052828;28;20204;-42
2024/01/21 11:57:17;;;;;;;0.00;0.00;;;27.40;44.10;;;;;;5052708;28;20191;-46
2024/01/21 11:59:49;;;;;;;0.00;0.00;;;27.40;44.80;;;;;;5052243;28;20187;-42
2024/01/21 12:02:21;;;;;;;0.00;0.00;;;27.30;44.10;;;;;;5052729;28;20294;-44
2024/01/21 12:04:51;;;;;;;0.00;0.00;;;27.30;44.10;;;;;;5052733;28;20251;-42
2024/01/21 12:07:24;;;;;;;0.00;0.00;;;27.30;44.20;;;;;;5052525;28;20192;-42
2024/01/21 12:09:55;;;;;;;0.00;0.00;;;27.20;44.10;;;;;;5045199;28;20224;-43
2024/01/21 12:12:26;;;;;;;0.00;0.00;;;27.20;44.20;;;;;;5052834;28;20594;-45
2024/01/21 12:15:00;;;;;;;0.00;0.00;;;27.20;44.20;;;;;;5053122;28;20207;-44
2024/01/21 12:17:31;;;;;;;0.00;0.00;;;27.20;44.20;;;;;;5053117;28;20451;-42
2024/01/21 12:20:04;;;;;;;0.00;0.00;;;27.20;44.30;;;;;;5033215;28;20550;-41
2024/01/21 12:22:42;;;;;;;0.00;0.00;;;27.20;44.30;;;;;;5032714;28;20297;-41
2024/01/21 12:25:14;;;;;;;0.00;0.00;;;27.10;44.20;;;;;;5032636;28;20227;-42
2024/01/21 12:27:51;;;;;;;0.00;0.00;;;27.20;44.30;;;;;;5032181;28;20200;-41
2024/01/21 12:30:28;;;;;;;0.00;0.00;;;27.10;44.20;;;;;;5031406;28;20196;-43
2024/01/21 12:32:58;;;;;;;0.00;0.00;;;27.10;44.20;;;;;;5031634;28;20700;-42
2024/01/21 12:35:29;;;;;;;0.00;0.00;;;27.10;44.20;;;;;;5032486;28;20208;-42
2024/01/21 12:38:00;;;;;;;0.00;0.00;;;27.10;44.20;;;;;;5032780;28;20226;-43
2024/01/21 12:40:30;;;;;;;0.00;0.00;;;27.00;44.20;;;;;;5032437;28;20288;-41
2024/01/21 12:43:01;;;;;;;0.00;0.00;;;27.00;44.20;;;;;;5031943;28;20216;-42
2024/01/21 12:45:33;;;;;;;0.00;0.00;;;27.00;44.20;;;;;;5040933;28;20215;-43
2024/01/21 12:48:04;;;;;;;0.00;0.00;;;27.00;44.20;;;;;;5049578;28;20192;-41
2024/01/21 12:50:35;;;;;;;0.00;0.00;;;27.00;44.20;;;;;;5047145;28;20631;-42
2024/01/21 12:53:06;;;;;;;0.00;0.00;;;27.00;44.20;;;;;;5051935;28;20212;-41
2024/01/21 12:55:36;;;;;;;0.00;0.00;;;27.00;44.30;;;;;;5047455;28;20196;-43
2024/01/21 12:58:09;;;;;;;0.00;0.00;;;26.90;44.20;;;;;;5051874;28;20202;-42
2024/01/21 13:00:41;;;;;;;0.00;0.00;;;26.90;44.30;;;;;;5051911;28;20187;-42
2024/01/21 13:03:12;;;;;;;0.00;0.00;;;26.90;44.30;;;;;;5046015;28;20349;-44
2024/01/21 13:05:43;;;;;;;0.00;0.00;;;26.90;44.30;;;;;;5048283;28;20227;-42
2024/01/21 13:08:14;;;;;;;0.00;0.00;;;26.90;44.30;;;;;;5043809;28;20194;-42
2024/01/21 13:10:45;;;;;;;0.00;0.00;;;26.90;44.30;;;;;;5051641;28;20198;-42
2024/01/21 13:13:15;;;;;;;0.00;0.00;;;26.80;44.30;;;;;;5046925;28;20682;-42